Aviation Digital Data Service (ADDS)

Output produced by METARs form (2113 UTC 20 August 2019)
found at http://www.aviationweather.gov/metar/data/
 
Forecast for: SBSP (SAO PAULO/CONGON, BR)
Text: TAF SBSP 201620Z 2018/2106 15008KT 9999 BKN007 OVC010 TX15/2018Z TN14/2105Z
Forecast period: 1800 UTC 20 August 2019 to 0600 UTC 21 August 2019
Forecast type: FROM: standard forecast or significant change
Winds: from the SSE (150 degrees) at 9 MPH (8 knots; 4.1 m/s)
Visibility: 6 or more miles 10+ km)
Ceiling: 700 feet AGL
Clouds: broken clouds at 700 feet AGL
overcast cloud deck at 1000 feet AGL
Weather: no significant weather forecast for this period
Text: PROB40
Forecast period: 1800 UTC 20 August 2019 to 0100 UTC 21 August 2019
Forecast type: TEMPORARY: The following changes expected for less than half the time period
Visibility: 2.49 miles (4.01 km)
Ceiling: 500 feet AGL
Clouds: broken clouds at 500 feet AGL
overcast cloud deck at 900 feet AGL
Weather: DZ BR  (moderate drizzle, mist)